Terminal Aerodrome Forecast
Issued by NWS

Home | Current Version | Previous Version | Text Only | Print | Product List | Glossary On
Versions: 1 2 3 4 5 6 7 8 9 10 11 12 13 14 15 16 17 18
000
FTPA31 PHFO 060520
TAFHNY
TAF
PHNY 060520Z 0606/0706 27007KT P6SM SCT015 BKN035
      TEMPO 0606/0608 VRB06KT BKN012 BKN025
     FM060800 VRB04KT P6SM SCT025
     FM061900 26009KT P6SM VCSH BKN019 BKN030
      TEMPO 0619/0623 VRB06KT SCT020 BKN035
     FM070400 04010KT P6SM VCSH BKN035=

USA.gov is the U.S. government's official web portal to all federal, state and local government web resources and services.